sensor_id;sensor_type;location;lat;lon;timestamp;pressure;altitude;pressure_sealevel;temperature;humidity
68508;BME280;55510;49.560;19.090;2023-02-12T15:40:34;98364.16;;;1.41;83.35
68508;BME280;55510;49.560;19.090;2023-02-12T15:43:42;98374.38;;;1.35;84.34
68508;BME280;55510;49.560;19.090;2023-02-12T15:46:56;98380.13;;;1.28;84.69
68508;BME280;55510;49.560;19.090;2023-02-12T15:49:58;98373.50;;;1.24;85.33
68508;BME280;55510;49.560;19.090;2023-02-12T15:53:01;98379.28;;;1.18;85.79
68508;BME280;55510;49.560;19.090;2023-02-12T15:56:03;98384.50;;;1.08;86.22
68508;BME280;55510;49.560;19.090;2023-02-12T15:59:03;98380.31;;;0.96;86.75
68508;BME280;55510;49.560;19.090;2023-02-12T16:02:18;98378.13;;;0.91;88.06
68508;BME280;55510;49.560;19.090;2023-02-12T16:05:20;98390.75;;;0.86;88.49
68508;BME280;55510;49.560;19.090;2023-02-12T16:08:22;98387.16;;;0.77;89.11
68508;BME280;55510;49.560;19.090;2023-02-12T16:11:24;98386.59;;;0.74;89.04
68508;BME280;55510;49.560;19.090;2023-02-12T16:14:38;98387.38;;;0.64;89.05
68508;BME280;55510;49.560;19.090;2023-02-12T16:17:46;98394.09;;;0.57;90.26
68508;BME280;55510;49.560;19.090;2023-02-12T16:20:47;98398.31;;;0.48;90.74
68508;BME280;55510;49.560;19.090;2023-02-12T16:23:50;98397.97;;;0.32;90.64
68508;BME280;55510;49.560;19.090;2023-02-12T16:26:51;98395.16;;;0.23;91.42
68508;BME280;55510;49.560;19.090;2023-02-12T16:29:55;98395.09;;;0.13;92.50
68508;BME280;55510;49.560;19.090;2023-02-12T16:32:57;98399.16;;;0.06;93.47
68508;BME280;55510;49.560;19.090;2023-02-12T16:36:03;98398.72;;;0.01;94.22
68508;BME280;55510;49.560;19.090;2023-02-12T16:39:05;98402.28;;;0.00;94.31
68508;BME280;55510;49.560;19.090;2023-02-12T16:42:13;98400.50;;;0.01;94.85
68508;BME280;55510;49.560;19.090;2023-02-12T16:48:27;98409.72;;;-0.17;95.85
68508;BME280;55510;49.560;19.090;2023-02-12T16:51:34;98401.66;;;-0.25;96.60
68508;BME280;55510;49.560;19.090;2023-02-12T16:54:35;98401.31;;;-0.32;96.36
68508;BME280;55510;49.560;19.090;2023-02-12T16:57:35;98408.84;;;-0.38;96.58
68508;BME280;55510;49.560;19.090;2023-02-12T17:00:36;98404.34;;;-0.36;97.10
68508;BME280;55510;49.560;19.090;2023-02-12T17:03:38;98407.81;;;-0.47;97.67
68508;BME280;55510;49.560;19.090;2023-02-12T17:06:39;98399.16;;;-0.59;98.18
68508;BME280;55510;49.560;19.090;2023-02-12T17:09:39;98410.09;;;-0.65;99.14
68508;BME280;55510;49.560;19.090;2023-02-12T17:12:48;98406.78;;;-0.67;99.13
68508;BME280;55510;49.560;19.090;2023-02-12T17:18:54;98404.19;;;-0.79;100.00
68508;BME280;55510;49.560;19.090;2023-02-12T17:21:55;98415.25;;;-0.86;100.00
68508;BME280;55510;49.560;19.090;2023-02-12T17:24:56;98409.91;;;-0.96;100.00
68508;BME280;55510;49.560;19.090;2023-02-12T17:27:57;98405.41;;;-1.06;100.00
68508;BME280;55510;49.560;19.090;2023-02-12T17:30:58;98394.72;;;-1.14;100.00
68508;BME280;55510;49.560;19.090;2023-02-12T17:34:03;98385.56;;;-1.20;100.00
68508;BME280;55510;49.560;19.090;2023-02-12T17:37:04;98397.44;;;-1.27;100.00
68508;BME280;55510;49.560;19.090;2023-02-12T17:40:06;98398.00;;;-1.35;100.00
68508;BME280;55510;49.560;19.090;2023-02-12T17:43:07;98395.88;;;-1.41;100.00
68508;BME280;55510;49.560;19.090;2023-02-12T17:46:09;98402.41;;;-1.47;100.00
68508;BME280;55510;49.560;19.090;2023-02-12T17:49:10;98405.13;;;-1.48;100.00
68508;BME280;55510;49.560;19.090;2023-02-12T17:52:11;98404.66;;;-1.53;100.00
68508;BME280;55510;49.560;19.090;2023-02-12T17:55:12;98406.31;;;-1.64;100.00
68508;BME280;55510;49.560;19.090;2023-02-12T17:58:14;98413.19;;;-1.74;100.00
68508;BME280;55510;49.560;19.090;2023-02-12T18:01:17;98415.28;;;-1.79;100.00
68508;BME280;55510;49.560;19.090;2023-02-12T18:04:18;98416.91;;;-1.90;100.00
68508;BME280;55510;49.560;19.090;2023-02-12T18:07:19;98424.16;;;-1.93;100.00
68508;BME280;55510;49.560;19.090;2023-02-12T18:10:19;98419.16;;;-1.96;100.00
68508;BME280;55510;49.560;19.090;2023-02-12T18:13:20;98416.88;;;-2.01;100.00
68508;BME280;55510;49.560;19.090;2023-02-12T18:16:22;98423.28;;;-2.05;100.00
68508;BME280;55510;49.560;19.090;2023-02-12T18:19:27;98416.38;;;-2.06;100.00
68508;BME280;55510;49.560;19.090;2023-02-12T18:22:28;98415.00;;;-1.99;100.00
68508;BME280;55510;49.560;19.090;2023-02-12T18:25:28;98413.22;;;-1.98;100.00
68508;BME280;55510;49.560;19.090;2023-02-12T18:28:30;98416.56;;;-1.96;100.00
68508;BME280;55510;49.560;19.090;2023-02-12T18:31:31;98412.88;;;-1.94;100.00
68508;BME280;55510;49.560;19.090;2023-02-12T18:34:32;98414.53;;;-1.93;100.00
68508;BME280;55510;49.560;19.090;2023-02-12T18:37:33;98409.31;;;-1.93;100.00
68508;BME280;55510;49.560;19.090;2023-02-12T18:40:38;98408.38;;;-1.92;100.00
68508;BME280;55510;49.560;19.090;2023-02-12T18:43:42;98407.78;;;-1.95;100.00
68508;BME280;55510;49.560;19.090;2023-02-12T18:46:46;98410.22;;;-2.05;100.00
68508;BME280;55510;49.560;19.090;2023-02-12T18:49:46;98411.13;;;-2.17;100.00
68508;BME280;55510;49.560;19.090;2023-02-12T18:52:47;98409.91;;;-2.25;100.00
68508;BME280;55510;49.560;19.090;2023-02-12T18:55:48;98408.34;;;-2.27;100.00
68508;BME280;55510;49.560;19.090;2023-02-12T18:58:53;98409.84;;;-2.36;100.00
68508;BME280;55510;49.560;19.090;2023-02-12T19:01:54;98409.63;;;-2.33;100.00
68508;BME280;55510;49.560;19.090;2023-02-12T19:04:55;98408.22;;;-2.26;100.00
68508;BME280;55510;49.560;19.090;2023-02-12T19:07:56;98408.75;;;-2.21;100.00
68508;BME280;55510;49.560;19.090;2023-02-12T19:10:57;98411.72;;;-2.14;100.00
68508;BME280;55510;49.560;19.090;2023-02-12T19:13:57;98414.72;;;-2.07;100.00
68508;BME280;55510;49.560;19.090;2023-02-12T19:16:58;98408.34;;;-2.03;100.00
68508;BME280;55510;49.560;19.090;2023-02-12T19:19:59;98411.66;;;-2.01;100.00
68508;BME280;55510;49.560;19.090;2023-02-12T19:23:02;98406.22;;;-1.98;100.00
68508;BME280;55510;49.560;19.090;2023-02-12T19:26:07;98403.59;;;-1.98;100.00
68508;BME280;55510;49.560;19.090;2023-02-12T19:29:10;98396.63;;;-1.97;100.00
68508;BME280;55510;49.560;19.090;2023-02-12T19:32:10;98393.88;;;-1.96;100.00
68508;BME280;55510;49.560;19.090;2023-02-12T19:35:11;98390.78;;;-2.01;100.00
68508;BME280;55510;49.560;19.090;2023-02-12T19:38:12;98383.69;;;-1.99;100.00
68508;BME280;55510;49.560;19.090;2023-02-12T19:41:15;98388.66;;;-1.96;100.00
68508;BME280;55510;49.560;19.090;2023-02-12T19:44:19;98392.84;;;-1.93;100.00
68508;BME280;55510;49.560;19.090;2023-02-12T19:47:23;98395.44;;;-1.93;100.00
68508;BME280;55510;49.560;19.090;2023-02-12T19:50:23;98395.50;;;-2.06;100.00
68508;BME280;55510;49.560;19.090;2023-02-12T19:53:25;98394.41;;;-2.15;100.00
68508;BME280;55510;49.560;19.090;2023-02-12T19:56:26;98394.19;;;-2.12;100.00
68508;BME280;55510;49.560;19.090;2023-02-12T19:59:27;98379.38;;;-2.11;100.00
68508;BME280;55510;49.560;19.090;2023-02-12T20:02:27;98382.69;;;-2.09;100.00
68508;BME280;55510;49.560;19.090;2023-02-12T20:05:28;98387.69;;;-2.06;100.00
68508;BME280;55510;49.560;19.090;2023-02-12T20:08:31;98400.84;;;-2.08;100.00
68508;BME280;55510;49.560;19.090;2023-02-12T20:11:34;98395.50;;;-2.06;100.00
68508;BME280;55510;49.560;19.090;2023-02-12T20:14:36;98393.50;;;-2.02;100.00
68508;BME280;55510;49.560;19.090;2023-02-12T20:17:37;98393.50;;;-2.02;100.00
68508;BME280;55510;49.560;19.090;2023-02-12T20:20:38;98384.84;;;-2.03;100.00
68508;BME280;55510;49.560;19.090;2023-02-12T20:23:42;98391.72;;;-2.02;100.00
68508;BME280;55510;49.560;19.090;2023-02-12T20:26:43;98403.34;;;-2.06;100.00
68508;BME280;55510;49.560;19.090;2023-02-12T20:29:44;98405.22;;;-2.08;100.00
68508;BME280;55510;49.560;19.090;2023-02-12T20:32:45;98408.06;;;-2.11;100.00
68508;BME280;55510;49.560;19.090;2023-02-12T20:35:53;98409.97;;;-2.13;100.00
68508;BME280;55510;49.560;19.090;2023-02-12T20:38:54;98405.91;;;-2.17;100.00
68508;BME280;55510;49.560;19.090;2023-02-12T20:41:55;98407.81;;;-2.20;100.00
68508;BME280;55510;49.560;19.090;2023-02-12T20:44:56;98405.31;;;-2.21;100.00
68508;BME280;55510;49.560;19.090;2023-02-12T20:47:57;98409.47;;;-2.19;100.00
68508;BME280;55510;49.560;19.090;2023-02-12T20:51:08;98406.72;;;-2.17;100.00
68508;BME280;55510;49.560;19.090;2023-02-12T20:54:10;98406.50;;;-2.14;100.00
68508;BME280;55510;49.560;19.090;2023-02-12T20:57:11;98419.47;;;-2.12;100.00
68508;BME280;55510;49.560;19.090;2023-02-12T21:00:13;98409.59;;;-2.09;100.00
68508;BME280;55510;49.560;19.090;2023-02-12T21:03:13;98418.06;;;-2.05;100.00
68508;BME280;55510;49.560;19.090;2023-02-12T21:06:14;98419.09;;;-2.08;100.00
68508;BME280;55510;49.560;19.090;2023-02-12T21:09:15;98424.94;;;-2.04;100.00
68508;BME280;55510;49.560;19.090;2023-02-12T21:12:16;98415.94;;;-2.00;100.00
68508;BME280;55510;49.560;19.090;2023-02-12T21:15:18;98425.19;;;-1.96;100.00
68508;BME280;55510;49.560;19.090;2023-02-12T21:18:19;98408.81;;;-1.98;100.00
68508;BME280;55510;49.560;19.090;2023-02-12T21:21:35;98418.09;;;-1.94;100.00
68508;BME280;55510;49.560;19.090;2023-02-12T21:24:37;98404.72;;;-1.89;100.00
68508;BME280;55510;49.560;19.090;2023-02-12T21:27:37;98398.53;;;-1.88;100.00
68508;BME280;55510;49.560;19.090;2023-02-12T21:30:40;98405.28;;;-1.85;100.00
68508;BME280;55510;49.560;19.090;2023-02-12T21:33:42;98396.41;;;-1.83;100.00
68508;BME280;55510;49.560;19.090;2023-02-12T21:36:45;98390.59;;;-1.86;100.00
68508;BME280;55510;49.560;19.090;2023-02-12T21:39:45;98397.81;;;-1.90;100.00
68508;BME280;55510;49.560;19.090;2023-02-12T21:42:46;98404.31;;;-1.96;100.00
68508;BME280;55510;49.560;19.090;2023-02-12T21:45:50;98407.84;;;-2.08;100.00
68508;BME280;55510;49.560;19.090;2023-02-12T21:48:52;98409.72;;;-2.10;100.00
68508;BME280;55510;49.560;19.090;2023-02-12T21:51:55;98403.31;;;-2.17;100.00
68508;BME280;55510;49.560;19.090;2023-02-12T21:54:56;98405.69;;;-2.14;100.00
68508;BME280;55510;49.560;19.090;2023-02-12T21:57:57;98413.38;;;-2.13;100.00
68508;BME280;55510;49.560;19.090;2023-02-12T22:01:08;98407.94;;;-2.10;100.00
68508;BME280;55510;49.560;19.090;2023-02-12T22:04:09;98422.44;;;-2.06;100.00
68508;BME280;55510;49.560;19.090;2023-02-12T22:07:10;98427.53;;;-2.04;100.00
68508;BME280;55510;49.560;19.090;2023-02-12T22:10:10;98423.75;;;-2.00;100.00
68508;BME280;55510;49.560;19.090;2023-02-12T22:13:11;98431.13;;;-1.94;100.00
68508;BME280;55510;49.560;19.090;2023-02-12T22:16:13;98430.81;;;-1.89;100.00
68508;BME280;55510;49.560;19.090;2023-02-12T22:19:14;98438.50;;;-1.87;100.00
68508;BME280;55510;49.560;19.090;2023-02-12T22:22:15;98441.97;;;-1.87;100.00
68508;BME280;55510;49.560;19.090;2023-02-12T22:25:15;98445.16;;;-1.83;100.00
68508;BME280;55510;49.560;19.090;2023-02-12T22:28:16;98438.56;;;-1.76;100.00
68508;BME280;55510;49.560;19.090;2023-02-12T22:31:20;98432.41;;;-1.75;100.00
68508;BME280;55510;49.560;19.090;2023-02-12T22:34:21;98438.09;;;-1.70;100.00
68508;BME280;55510;49.560;19.090;2023-02-12T22:37:22;98428.16;;;-1.65;100.00
68508;BME280;55510;49.560;19.090;2023-02-12T22:40:23;98428.84;;;-1.63;100.00
68508;BME280;55510;49.560;19.090;2023-02-12T22:43:24;98426.97;;;-1.61;100.00
68508;BME280;55510;49.560;19.090;2023-02-12T22:46:25;98427.44;;;-1.55;100.00
68508;BME280;55510;49.560;19.090;2023-02-12T22:49:26;98427.94;;;-1.50;100.00
68508;BME280;55510;49.560;19.090;2023-02-12T22:52:27;98433.47;;;-1.55;100.00
68508;BME280;55510;49.560;19.090;2023-02-12T22:55:28;98434.09;;;-1.51;100.00
68508;BME280;55510;49.560;19.090;2023-02-12T22:58:28;98434.81;;;-1.49;100.00
68508;BME280;55510;49.560;19.090;2023-02-12T23:01:29;98438.84;;;-1.45;100.00
68508;BME280;55510;49.560;19.090;2023-02-12T23:04:30;98434.09;;;-1.51;100.00
68508;BME280;55510;49.560;19.090;2023-02-12T23:07:31;98440.75;;;-1.47;100.00
68508;BME280;55510;49.560;19.090;2023-02-12T23:10:32;98439.56;;;-1.54;100.00
68508;BME280;55510;49.560;19.090;2023-02-12T23:13:34;98438.34;;;-1.62;100.00
68508;BME280;55510;49.560;19.090;2023-02-12T23:16:34;98439.06;;;-1.59;100.00
68508;BME280;55510;49.560;19.090;2023-02-12T23:19:35;98442.41;;;-1.57;100.00
68508;BME280;55510;49.560;19.090;2023-02-12T23:22:36;98443.81;;;-1.53;100.00
68508;BME280;55510;49.560;19.090;2023-02-12T23:25:36;98439.09;;;-1.48;100.00
68508;BME280;55510;49.560;19.090;2023-02-12T23:28:37;98440.28;;;-1.41;100.00
68508;BME280;55510;49.560;19.090;2023-02-12T23:31:38;98438.16;;;-1.36;100.00
68508;BME280;55510;49.560;19.090;2023-02-12T23:34:38;98432.47;;;-1.29;100.00
68508;BME280;55510;49.560;19.090;2023-02-12T23:37:41;98430.44;;;-1.26;100.00
68508;BME280;55510;49.560;19.090;2023-02-12T23:40:42;98434.97;;;-1.28;100.00
68508;BME280;55510;49.560;19.090;2023-02-12T23:43:43;98431.03;;;-1.34;100.00
68508;BME280;55510;49.560;19.090;2023-02-12T23:46:44;98432.81;;;-1.34;100.00
68508;BME280;55510;49.560;19.090;2023-02-12T23:49:47;98434.47;;;-1.33;100.00
68508;BME280;55510;49.560;19.090;2023-02-12T23:52:47;98434.38;;;-1.32;100.00
68508;BME280;55510;49.560;19.090;2023-02-12T23:55:49;98433.28;;;-1.29;100.00
68508;BME280;55510;49.560;19.090;2023-02-12T23:58:50;98430.59;;;-1.27;100.00
